Time;durP1;ratioP1;P1;durP2;ratioP2;P2;SDS_P1;SDS_P2;PMS_P1;PMS_P2;Temp;Humidity;BMP_temperature;BMP_pressure;BME280_temperature;BME280_humidity;BME280_pressure;Samples;Min_cycle;Max_cycle;Signal;HPM_P1;HPM_P2
2023/05/10 00:00:34;;;;;;;39.47;25.02;;;;;;;;;;5091557;28;20039;-73
2023/05/10 00:03:40;;;;;;;40.42;23.27;;;;;;;;;;5091401;28;20055;-72
2023/05/10 00:06:44;;;;;;;38.92;23.98;;;;;;;;;;5091467;28;20039;-73
2023/05/10 00:09:48;;;;;;;37.28;24.25;;;;;;;;;;5091724;28;20050;-73
2023/05/10 00:12:52;;;;;;;33.97;23.58;;;;;;;;;;5091584;28;20506;-72
2023/05/10 00:15:56;;;;;;;38.78;23.50;;;;;;;;;;5091604;28;20054;-73
2023/05/10 00:19:01;;;;;;;39.97;22.90;;;;;;;;;;5090518;28;20051;-72
2023/05/10 00:22:05;;;;;;;37.95;23.85;;;;;;;;;;5091403;28;20063;-73
2023/05/10 00:25:10;;;;;;;36.60;23.02;;;;;;;;;;5091158;28;20185;-72
2023/05/10 00:28:14;;;;;;;31.75;21.13;;;;;;;;;;5091194;28;20407;-73
2023/05/10 00:31:19;;;;;;;32.78;23.98;;;;;;;;;;5090215;28;20504;-72
2023/05/10 00:34:24;;;;;;;36.55;21.02;;;;;;;;;;5091469;28;20035;-73
2023/05/10 00:37:28;;;;;;;37.90;23.80;;;;;;;;;;5090560;28;20067;-73
2023/05/10 00:40:33;;;;;;;41.80;23.13;;;;;;;;;;5090302;28;20039;-73
2023/05/10 00:43:41;;;;;;;36.47;22.92;;;;;;;;;;5090019;28;20051;-73
2023/05/10 00:46:45;;;;;;;35.97;22.33;;;;;;;;;;5090105;28;20051;-73
2023/05/10 00:49:50;;;;;;;39.20;21.83;;;;;;;;;;5090684;28;20391;-73
2023/05/10 00:52:54;;;;;;;31.67;21.98;;;;;;;;;;5090905;28;20039;-73
2023/05/10 00:55:59;;;;;;;34.65;21.67;;;;;;;;;;5090888;28;20043;-73
2023/05/10 00:59:03;;;;;;;34.83;19.83;;;;;;;;;;5091066;28;20051;-72
2023/05/10 01:02:07;;;;;;;29.52;17.30;;;;;;;;;;5090878;28;20047;-73
2023/05/10 01:05:12;;;;;;;23.38;14.50;;;;;;;;;;5090987;28;20051;-73
2023/05/10 01:08:16;;;;;;;21.85;13.48;;;;;;;;;;5091062;28;20039;-73
2023/05/10 01:11:21;;;;;;;18.05;10.60;;;;;;;;;;5091004;28;20668;-73
2023/05/10 01:14:25;;;;;;;18.90;10.88;;;;;;;;;;5090756;28;20513;-73
2023/05/10 01:17:30;;;;;;;21.23;10.93;;;;;;;;;;5090857;28;20047;-73
2023/05/10 01:20:38;;;;;;;17.38;9.90;;;;;;;;;;5090707;28;20467;-73
2023/05/10 01:23:59;;;;;;;17.38;9.63;;;;;;;;;;5089836;28;20055;-71
2023/05/10 01:27:22;;;;;;;13.90;7.75;;;;;;;;;;5089641;28;20044;-71
2023/05/10 01:30:45;;;;;;;13.80;7.40;;;;;;;;;;5092612;28;20035;-72
2023/05/10 01:33:52;;;;;;;12.25;7.50;;;;;;;;;;5093596;28;20395;-72
2023/05/10 01:37:03;;;;;;;16.80;7.63;;;;;;;;;;5094728;28;20524;-72
2023/05/10 01:40:07;;;;;;;14.70;7.95;;;;;;;;;;5094733;28;20055;-72
2023/05/10 01:43:16;;;;;;;11.10;7.47;;;;;;;;;;5094345;28;20059;-72
2023/05/10 01:46:38;;;;;;;13.35;7.68;;;;;;;;;;5094623;28;20127;-73
2023/05/10 01:49:46;;;;;;;15.50;8.27;;;;;;;;;;5094296;28;20047;-72
2023/05/10 01:52:57;;;;;;;12.88;8.18;;;;;;;;;;5093497;28;20110;-72
2023/05/10 01:56:02;;;;;;;12.75;8.10;;;;;;;;;;5094582;28;20043;-72
2023/05/10 01:59:07;;;;;;;14.02;7.70;;;;;;;;;;5093177;28;20059;-72
2023/05/10 02:02:12;;;;;;;14.77;9.02;;;;;;;;;;5093121;28;20493;-72
2023/05/10 02:05:17;;;;;;;12.90;8.70;;;;;;;;;;5093012;28;20042;-72
2023/05/10 02:08:23;;;;;;;14.32;9.40;;;;;;;;;;5094148;28;20043;-72
2023/05/10 02:11:28;;;;;;;15.20;9.45;;;;;;;;;;5094574;28;20046;-73
2023/05/10 02:14:33;;;;;;;16.52;9.25;;;;;;;;;;5093978;28;20052;-73
2023/05/10 02:17:38;;;;;;;13.27;9.63;;;;;;;;;;5093264;28;20051;-73
2023/05/10 02:20:44;;;;;;;15.02;9.57;;;;;;;;;;5081822;28;20043;-73
2023/05/10 02:23:49;;;;;;;14.07;9.82;;;;;;;;;;5093503;28;20059;-73
2023/05/10 02:26:55;;;;;;;14.88;9.80;;;;;;;;;;5092629;28;20035;-72
2023/05/10 02:29:59;;;;;;;13.98;9.70;;;;;;;;;;5093409;28;20055;-73
2023/05/10 02:33:05;;;;;;;18.15;10.02;;;;;;;;;;5092499;28;20102;-73
2023/05/10 02:36:09;;;;;;;17.20;9.52;;;;;;;;;;5093767;28;20039;-73
2023/05/10 02:39:15;;;;;;;14.63;9.32;;;;;;;;;;5092480;28;20396;-73
2023/05/10 02:42:20;;;;;;;18.23;9.32;;;;;;;;;;5092043;28;20047;-73
2023/05/10 02:45:26;;;;;;;16.58;9.32;;;;;;;;;;5093205;28;20043;-73
2023/05/10 02:48:30;;;;;;;14.02;9.85;;;;;;;;;;5093077;28;20043;-73
2023/05/10 02:51:35;;;;;;;16.75;9.32;;;;;;;;;;5092195;28;20043;-72
2023/05/10 02:54:47;;;;;;;14.50;10.30;;;;;;;;;;5092974;28;20047;-73
2023/05/10 02:57:53;;;;;;;19.48;10.13;;;;;;;;;;5093080;28;20052;-73
2023/05/10 03:00:57;;;;;;;12.77;10.35;;;;;;;;;;5092776;28;20659;-73
2023/05/10 03:04:01;;;;;;;11.75;9.88;;;;;;;;;;5092689;28;20559;-73
2023/05/10 03:07:06;;;;;;;12.95;10.07;;;;;;;;;;5092035;28;20039;-73
2023/05/10 03:10:10;;;;;;;12.98;10.02;;;;;;;;;;5092914;28;20043;-73
2023/05/10 03:13:24;;;;;;;11.77;9.50;;;;;;;;;;5091751;28;20054;-73
2023/05/10 03:16:28;;;;;;;;;;;;;;;;;;5092203;28;20043;-73
2023/05/10 03:19:52;;;;;;;15.05;10.27;;;;;;;;;;5103647;28;20271;-73
2023/05/10 03:23:11;;;;;;;15.13;10.20;;;;;;;;;;5091653;28;20110;-73
2023/05/10 03:26:18;;;;;;;20.25;11.07;;;;;;;;;;5092337;28;20047;-71
2023/05/10 03:29:23;;;;;;;16.42;10.15;;;;;;;;;;5091492;28;20043;-72
2023/05/10 03:32:30;;;;;;;16.38;11.30;;;;;;;;;;5091052;28;20043;-72
2023/05/10 03:35:34;;;;;;;13.13;10.80;;;;;;;;;;5092123;28;20055;-72
2023/05/10 03:38:38;;;;;;;15.50;11.52;;;;;;;;;;5092339;28;20042;-72
2023/05/10 03:41:43;;;;;;;16.83;10.93;;;;;;;;;;5091113;28;20047;-72
2023/05/10 03:44:49;;;;;;;16.42;11.10;;;;;;;;;;5091384;28;20530;-72
2023/05/10 03:47:53;;;;;;;13.85;11.27;;;;;;;;;;5091286;28;20050;-72
2023/05/10 03:50:58;;;;;;;18.88;12.55;;;;;;;;;;5092087;28;20051;-72
2023/05/10 03:54:02;;;;;;;23.55;12.88;;;;;;;;;;5091638;28;20043;-73
2023/05/10 03:57:07;;;;;;;16.10;11.63;;;;;;;;;;5091211;28;20043;-72
2023/05/10 04:00:12;;;;;;;19.70;12.10;;;;;;;;;;5090903;28;20518;-72
2023/05/10 04:03:20;;;;;;;16.58;12.43;;;;;;;;;;5090602;28;20399;-72
2023/05/10 04:06:24;;;;;;;17.00;13.52;;;;;;;;;;5079379;28;20043;-73
2023/05/10 04:09:29;;;;;;;20.17;13.95;;;;;;;;;;5090823;28;20388;-72
2023/05/10 04:12:33;;;;;;;22.42;14.38;;;;;;;;;;5090404;28;20047;-73
2023/05/10 04:15:37;;;;;;;19.38;14.68;;;;;;;;;;5091544;28;20047;-73
2023/05/10 04:18:42;;;;;;;23.70;14.35;;;;;;;;;;5091611;28;20538;-73
2023/05/10 04:21:46;;;;;;;19.45;14.57;;;;;;;;;;5091506;28;20047;-73
2023/05/10 04:24:51;;;;;;;23.38;14.55;;;;;;;;;;5091230;28;20396;-73
2023/05/10 04:27:55;;;;;;;23.50;15.02;;;;;;;;;;5091282;28;20086;-73
2023/05/10 04:31:07;;;;;;;24.65;15.13;;;;;;;;;;5091407;28;20062;-71
2023/05/10 04:34:10;;;;;;;;;;;;;;;;;;5091915;28;20494;-72
2023/05/10 04:37:14;;;;;;;24.70;16.15;;;;;;;;;;5091140;28;19919;-72
2023/05/10 04:40:19;;;;;;;24.02;16.55;;;;;;;;;;5091215;28;20043;-72
2023/05/10 04:43:24;;;;;;;25.15;17.65;;;;;;;;;;5091081;28;20047;-72
2023/05/10 04:46:28;;;;;;;26.17;17.92;;;;;;;;;;5091210;28;20043;-72
2023/05/10 04:49:32;;;;;;;23.48;17.27;;;;;;;;;;5091054;28;20062;-72
2023/05/10 04:52:37;;;;;;;28.95;18.58;;;;;;;;;;5091067;28;20051;-72
2023/05/10 04:55:41;;;;;;;24.35;15.23;;;;;;;;;;5090790;28;20082;-72
2023/05/10 04:58:45;;;;;;;21.63;15.65;;;;;;;;;;5091118;28;20392;-73
2023/05/10 05:01:50;;;;;;;25.52;16.80;;;;;;;;;;5090788;28;20043;-72
2023/05/10 05:04:57;;;;;;;29.15;19.60;;;;;;;;;;5092124;28;20047;-73
2023/05/10 05:08:02;;;;;;;36.38;21.30;;;;;;;;;;5095285;28;20087;-72
2023/05/10 05:11:06;;;;;;;30.20;20.48;;;;;;;;;;5095109;28;20035;-72
2023/05/10 05:14:10;;;;;;;26.40;17.95;;;;;;;;;;5094848;28;20043;-72
2023/05/10 05:17:15;;;;;;;28.05;18.20;;;;;;;;;;5095095;28;20043;-73
2023/05/10 05:20:19;;;;;;;29.25;18.15;;;;;;;;;;5095068;28;20051;-72
2023/05/10 05:23:24;;;;;;;24.15;15.93;;;;;;;;;;5094815;28;20063;-80
2023/05/10 05:26:29;;;;;;;20.10;14.00;;;;;;;;;;5095027;28;20529;-80
2023/05/10 05:29:33;;;;;;;24.55;16.40;;;;;;;;;;5094743;28;20047;-79
2023/05/10 05:32:37;;;;;;;23.15;16.42;;;;;;;;;;5094983;28;20055;-81
2023/05/10 05:35:47;;;;;;;18.58;14.07;;;;;;;;;;5094685;28;20047;-83
2023/05/10 05:38:51;;;;;;;24.73;14.63;;;;;;;;;;5094782;28;20047;-83
2023/05/10 05:41:55;;;;;;;23.42;15.43;;;;;;;;;;5094017;28;20039;-82
2023/05/10 05:45:00;;;;;;;24.13;15.88;;;;;;;;;;5094719;28;20062;-80
2023/05/10 05:48:04;;;;;;;25.95;16.33;;;;;;;;;;5094727;28;20399;-80
2023/05/10 05:51:08;;;;;;;22.58;16.33;;;;;;;;;;5094234;28;20043;-82
2023/05/10 05:54:13;;;;;;;22.17;16.60;;;;;;;;;;5094212;28;20059;-81
2023/05/10 05:57:17;;;;;;;22.67;15.70;;;;;;;;;;5094058;28;20043;-79
2023/05/10 06:00:22;;;;;;;25.02;16.05;;;;;;;;;;5094158;28;20055;-82
2023/05/10 06:03:26;;;;;;;25.40;16.33;;;;;;;;;;5094294;28;20055;-78
2023/05/10 06:06:32;;;;;;;22.50;16.10;;;;;;;;;;5094421;28;20051;-82
2023/05/10 06:09:36;;;;;;;19.95;15.68;;;;;;;;;;5094240;28;20047;-80
2023/05/10 06:12:40;;;;;;;18.77;14.40;;;;;;;;;;5094408;28;20086;-80
2023/05/10 06:15:45;;;;;;;24.88;14.57;;;;;;;;;;5092056;28;20503;-77
2023/05/10 06:18:49;;;;;;;20.50;14.57;;;;;;;;;;5094155;28;20047;-81
2023/05/10 06:21:53;;;;;;;20.48;14.65;;;;;;;;;;5093430;28;20051;-81
2023/05/10 06:24:58;;;;;;;17.45;13.77;;;;;;;;;;5094251;28;20063;-78
2023/05/10 06:28:02;;;;;;;13.73;10.40;;;;;;;;;;5093419;28;20562;-78
2023/05/10 06:31:07;;;;;;;13.23;10.63;;;;;;;;;;5093557;28;20054;-82
2023/05/10 06:34:11;;;;;;;10.23;7.93;;;;;;;;;;5093969;28;20039;-82
2023/05/10 06:37:16;;;;;;;10.55;9.00;;;;;;;;;;5093653;28;20047;-77
2023/05/10 06:40:20;;;;;;;13.95;9.43;;;;;;;;;;5093223;28;20055;-80
2023/05/10 06:43:26;;;;;;;14.55;8.77;;;;;;;;;;5093416;28;20059;-76
2023/05/10 06:46:30;;;;;;;14.02;9.75;;;;;;;;;;5093259;28;20604;-79
2023/05/10 06:49:35;;;;;;;15.90;11.82;;;;;;;;;;5093305;28;20051;-80
2023/05/10 06:52:39;;;;;;;12.43;10.82;;;;;;;;;;5092451;28;20063;-83
2023/05/10 06:55:44;;;;;;;15.73;10.65;;;;;;;;;;5093581;28;20070;-80
2023/05/10 06:58:48;;;;;;;17.15;11.88;;;;;;;;;;5093035;28;20039;-78
2023/05/10 07:01:53;;;;;;;19.40;13.73;;;;;;;;;;5092765;28;20434;-78
2023/05/10 07:04:58;;;;;;;19.90;14.50;;;;;;;;;;5093081;28;20063;-78
2023/05/10 07:08:02;;;;;;;22.45;14.43;;;;;;;;;;5092181;28;20518;-78
2023/05/10 07:11:07;;;;;;;23.48;16.35;;;;;;;;;;5091581;28;20447;-77
2023/05/10 07:14:11;;;;;;;21.55;15.25;;;;;;;;;;5092577;28;20059;-74
2023/05/10 07:17:16;;;;;;;26.10;16.45;;;;;;;;;;5092605;28;20047;-77
2023/05/10 07:20:20;;;;;;;21.77;15.98;;;;;;;;;;5092750;28;20043;-76
2023/05/10 07:23:25;;;;;;;19.25;15.43;;;;;;;;;;5092614;28;20058;-77
2023/05/10 07:26:29;;;;;;;20.13;14.70;;;;;;;;;;5092717;28;20550;-77
2023/05/10 07:29:33;;;;;;;19.83;15.20;;;;;;;;;;5092369;28;20059;-78
2023/05/10 07:32:39;;;;;;;20.75;15.70;;;;;;;;;;5092520;28;20039;-77
2023/05/10 07:35:44;;;;;;;21.58;15.85;;;;;;;;;;5091947;28;20398;-78
2023/05/10 07:38:49;;;;;;;23.58;16.95;;;;;;;;;;5092511;28;20047;-76
2023/05/10 07:41:53;;;;;;;22.55;14.63;;;;;;;;;;5091466;28;20498;-76
2023/05/10 07:44:58;;;;;;;27.77;15.52;;;;;;;;;;5091101;28;20059;-79
2023/05/10 07:48:02;;;;;;;22.60;14.80;;;;;;;;;;5092262;28;20047;-79
2023/05/10 07:51:09;;;;;;;19.73;14.75;;;;;;;;;;5092129;28;20051;-78
2023/05/10 07:54:14;;;;;;;21.38;14.63;;;;;;;;;;5091769;28;20039;-77
2023/05/10 07:57:18;;;;;;;18.90;14.20;;;;;;;;;;5092072;28;20058;-76
2023/05/10 08:00:23;;;;;;;19.50;14.90;;;;;;;;;;5090889;28;20368;-80
2023/05/10 08:03:27;;;;;;;20.70;14.48;;;;;;;;;;5091715;28;20396;-81
2023/05/10 08:06:31;;;;;;;20.90;14.43;;;;;;;;;;5092025;28;20043;-80
2023/05/10 08:09:36;;;;;;;24.35;16.42;;;;;;;;;;5091686;28;20050;-79
2023/05/10 08:12:40;;;;;;;22.40;15.75;;;;;;;;;;5091706;28;20059;-80
2023/05/10 08:15:44;;;;;;;24.15;17.17;;;;;;;;;;5091732;28;20043;-79
2023/05/10 08:18:50;;;;;;;24.65;17.55;;;;;;;;;;5091676;28;20051;-79
2023/05/10 08:21:55;;;;;;;24.90;17.10;;;;;;;;;;5091289;28;20047;-80
2023/05/10 08:24:59;;;;;;;23.45;18.15;;;;;;;;;;5091357;28;20059;-80
2023/05/10 08:28:04;;;;;;;24.10;17.77;;;;;;;;;;5091244;28;20114;-79
2023/05/10 08:31:08;;;;;;;27.42;19.27;;;;;;;;;;5091062;28;20047;-81
2023/05/10 08:34:12;;;;;;;25.83;18.42;;;;;;;;;;5090493;28;20070;-79
2023/05/10 08:37:17;;;;;;;26.92;18.85;;;;;;;;;;5090919;28;20051;-80
2023/05/10 08:40:21;;;;;;;25.23;17.75;;;;;;;;;;5090145;28;20035;-78
2023/05/10 08:43:29;;;;;;;26.88;18.80;;;;;;;;;;5090223;28;20051;-77
2023/05/10 08:46:36;;;;;;;22.77;18.50;;;;;;;;;;5090634;28;20043;-78
2023/05/10 08:49:40;;;;;;;30.15;17.83;;;;;;;;;;5091140;28;20047;-78
2023/05/10 08:52:47;;;;;;;27.48;18.45;;;;;;;;;;5090296;28;20043;-77
2023/05/10 08:55:52;;;;;;;23.85;18.02;;;;;;;;;;5091055;28;20068;-77
2023/05/10 08:58:56;;;;;;;25.77;18.30;;;;;;;;;;5091321;28;20042;-78
2023/05/10 09:02:01;;;;;;;25.65;19.77;;;;;;;;;;5090997;28;20503;-76
2023/05/10 09:05:05;;;;;;;26.75;18.95;;;;;;;;;;5090801;28;20055;-77
2023/05/10 09:08:10;;;;;;;23.63;16.48;;;;;;;;;;5090951;28;20408;-77
2023/05/10 09:11:14;;;;;;;18.90;12.02;;;;;;;;;;5091032;28;20047;-77
2023/05/10 09:14:20;;;;;;;14.80;9.60;;;;;;;;;;5090828;28;20039;-77
2023/05/10 09:17:24;;;;;;;13.63;8.32;;;;;;;;;;5090681;28;20043;-77
2023/05/10 09:20:29;;;;;;;10.43;7.13;;;;;;;;;;5090827;28;20047;-78
2023/05/10 09:23:33;;;;;;;9.77;6.45;;;;;;;;;;5090836;28;20047;-77
2023/05/10 09:26:47;;;;;;;7.15;5.20;;;;;;;;;;5090819;28;20584;-76
2023/05/10 09:29:54;;;;;;;7.57;4.30;;;;;;;;;;5090805;28;20036;-75
2023/05/10 09:32:59;;;;;;;7.32;4.40;;;;;;;;;;5089733;28;20036;-74
2023/05/10 09:36:08;;;;;;;5.88;3.40;;;;;;;;;;5090723;28;20040;-75
2023/05/10 09:39:12;;;;;;;6.72;4.43;;;;;;;;;;5090778;28;20488;-83
2023/05/10 09:42:18;;;;;;;7.03;3.55;;;;;;;;;;5090809;28;20036;-80
2023/05/10 09:45:27;;;;;;;7.30;4.03;;;;;;;;;;5091001;28;20040;-82
2023/05/10 09:48:32;;;;;;;5.07;3.30;;;;;;;;;;5090804;28;20036;-82
2023/05/10 09:51:36;;;;;;;4.15;3.35;;;;;;;;;;5093110;28;20464;-86
2023/05/10 09:54:45;;;;;;;6.00;2.80;;;;;;;;;;5094578;28;20060;-79
2023/05/10 09:57:50;;;;;;;5.47;3.00;;;;;;;;;;5093954;28;20032;-85
2023/05/10 10:00:54;;;;;;;4.57;2.53;;;;;;;;;;5093058;28;20036;-82
2023/05/10 10:03:59;;;;;;;5.30;2.70;;;;;;;;;;5094659;28;20361;-85
2023/05/10 10:07:05;;;;;;;5.03;2.30;;;;;;;;;;5093662;28;20032;-82
2023/05/10 10:10:12;;;;;;;4.38;3.10;;;;;;;;;;5093309;28;20816;-80
2023/05/10 10:13:17;;;;;;;3.78;3.30;;;;;;;;;;5093520;28;20040;-83
2023/05/10 10:16:21;;;;;;;6.88;4.15;;;;;;;;;;5094009;28;20036;-84
2023/05/10 10:19:26;;;;;;;4.75;3.72;;;;;;;;;;5094560;28;20044;-82
2023/05/10 10:22:30;;;;;;;7.13;3.75;;;;;;;;;;5094279;28;20635;-78
2023/05/10 10:25:34;;;;;;;5.85;3.70;;;;;;;;;;5094357;28;20048;-81
2023/05/10 10:28:57;;;;;;;7.80;4.05;;;;;;;;;;5093796;28;20044;-83
2023/05/10 10:32:01;;;;;;;6.72;4.15;;;;;;;;;;5093964;28;20028;-81
2023/05/10 10:35:07;;;;;;;6.13;4.35;;;;;;;;;;5094036;28;20361;-82
2023/05/10 10:38:12;;;;;;;6.97;4.43;;;;;;;;;;5094067;28;20036;-83
2023/05/10 10:41:30;;;;;;;7.22;5.00;;;;;;;;;;5093711;28;20044;-86
2023/05/10 10:44:37;;;;;;;6.22;5.00;;;;;;;;;;5093391;28;20384;-82
2023/05/10 10:47:43;;;;;;;5.68;4.38;;;;;;;;;;5093328;28;20039;-80
2023/05/10 10:50:47;;;;;;;8.70;4.57;;;;;;;;;;5093107;28;20040;-79
2023/05/10 10:53:52;;;;;;;6.25;4.10;;;;;;;;;;5093253;28;20487;-78
2023/05/10 10:57:15;;;;;;;5.68;4.47;;;;;;;;;;5093368;28;20389;-77
2023/05/10 11:00:28;;;;;;;6.57;4.22;;;;;;;;;;5092822;28;20044;-79
2023/05/10 11:03:32;;;;;;;6.68;4.38;;;;;;;;;;5092569;28;20044;-81
2023/05/10 11:06:37;;;;;;;11.20;5.28;;;;;;;;;;5093557;28;20052;-85
2023/05/10 11:09:41;;;;;;;8.25;4.90;;;;;;;;;;5093804;28;20055;-85
2023/05/10 11:13:05;;;;;;;8.00;5.03;;;;;;;;;;5094935;28;20032;-80
2023/05/10 11:16:19;;;;;;;18.17;7.85;;;;;;;;;;5093239;28;20036;-76
2023/05/10 11:19:27;;;;;;;13.27;7.28;;;;;;;;;;5091951;28;20047;-75
2023/05/10 11:22:49;;;;;;;20.50;7.15;;;;;;;;;;5092954;28;20043;-77
2023/05/10 11:25:54;;;;;;;13.18;7.07;;;;;;;;;;5092743;28;20047;-80
2023/05/10 11:29:00;;;;;;;16.15;7.90;;;;;;;;;;5092690;28;20055;-84
2023/05/10 11:32:07;;;;;;;15.48;8.00;;;;;;;;;;5093220;28;20062;-86
2023/05/10 11:35:12;;;;;;;18.27;7.07;;;;;;;;;;5093370;28;20399;-82
2023/05/10 11:38:16;;;;;;;15.88;6.68;;;;;;;;;;5092636;28;20043;-80
2023/05/10 11:41:24;;;;;;;9.57;5.50;;;;;;;;;;5092667;28;20047;-85
2023/05/10 11:44:32;;;;;;;10.10;5.07;;;;;;;;;;5091899;28;20044;-81
2023/05/10 11:47:36;;;;;;;9.23;5.05;;;;;;;;;;5092418;28;20035;-78
2023/05/10 11:50:41;;;;;;;14.18;6.95;;;;;;;;;;5093374;28;20048;-77
2023/05/10 11:53:45;;;;;;;13.23;7.18;;;;;;;;;;5092356;28;20423;-81
2023/05/10 11:56:50;;;;;;;12.95;5.00;;;;;;;;;;5092396;28;20194;-83
2023/05/10 11:59:55;;;;;;;8.32;5.40;;;;;;;;;;5092102;28;20047;-78
2023/05/10 12:03:00;;;;;;;9.02;5.15;;;;;;;;;;5092266;28;20040;-76
2023/05/10 12:06:05;;;;;;;7.82;5.40;;;;;;;;;;5092199;28;20043;-72
2023/05/10 12:09:09;;;;;;;17.45;6.68;;;;;;;;;;5091745;28;20032;-78
2023/05/10 12:12:17;;;;;;;8.88;5.30;;;;;;;;;;5091986;28;20602;-78
2023/05/10 12:15:22;;;;;;;10.93;5.20;;;;;;;;;;5091705;28;20032;-78
2023/05/10 12:18:26;;;;;;;8.35;5.43;;;;;;;;;;5091635;28;20589;-78
2023/05/10 12:21:31;;;;;;;9.57;5.60;;;;;;;;;;5091834;28;20036;-78
2023/05/10 12:24:36;;;;;;;12.32;6.50;;;;;;;;;;5079154;28;20040;-78
2023/05/10 12:27:40;;;;;;;11.18;6.10;;;;;;;;;;5091251;28;20054;-78
2023/05/10 12:30:44;;;;;;;7.97;5.28;;;;;;;;;;5091636;28;20047;-79
2023/05/10 12:33:49;;;;;;;8.13;4.82;;;;;;;;;;5090844;28;20032;-78
2023/05/10 12:36:54;;;;;;;9.07;5.18;;;;;;;;;;5091328;28;20553;-78
2023/05/10 12:39:58;;;;;;;10.00;5.15;;;;;;;;;;5091335;28;20036;-77
2023/05/10 12:43:03;;;;;;;6.75;3.90;;;;;;;;;;5091512;28;20058;-78
2023/05/10 12:46:07;;;;;;;8.75;4.55;;;;;;;;;;5091452;28;20495;-78
2023/05/10 12:49:11;;;;;;;9.20;5.25;;;;;;;;;;5091807;28;20048;-78
2023/05/10 12:52:16;;;;;;;5.90;4.13;;;;;;;;;;5093167;28;20032;-78
2023/05/10 12:55:20;;;;;;;10.18;4.13;;;;;;;;;;5093454;28;20055;-83
2023/05/10 12:58:25;;;;;;;6.22;4.15;;;;;;;;;;5104905;28;20043;-85
2023/05/10 13:01:30;;;;;;;8.30;4.38;;;;;;;;;;5090213;28;20036;-90
2023/05/10 13:04:34;;;;;;;8.52;3.97;;;;;;;;;;5092668;28;20036;-82
2023/05/10 13:07:39;;;;;;;8.30;4.13;;;;;;;;;;5090941;28;20032;-81
2023/05/10 13:10:43;;;;;;;5.80;3.63;;;;;;;;;;5091510;28;20044;-79
2023/05/10 13:13:47;;;;;;;5.05;3.80;;;;;;;;;;5091632;28;20075;-82
2023/05/10 13:16:52;;;;;;;9.07;4.43;;;;;;;;;;5090763;28;20036;-81
2023/05/10 13:19:56;;;;;;;6.10;3.15;;;;;;;;;;5089162;28;20040;-83
2023/05/10 13:23:00;;;;;;;7.38;3.90;;;;;;;;;;5091469;28;20377;-82
2023/05/10 13:26:04;;;;;;;4.28;3.28;;;;;;;;;;5092594;28;20047;-84
2023/05/10 13:29:09;;;;;;;7.22;3.47;;;;;;;;;;5095008;28;20052;-82
2023/05/10 13:32:13;;;;;;;5.15;3.70;;;;;;;;;;5094078;28;20040;-85
2023/05/10 13:35:17;;;;;;;7.65;4.32;;;;;;;;;;5095474;28;20044;-86
2023/05/10 13:38:22;;;;;;;7.53;4.40;;;;;;;;;;5096074;28;20043;-85
2023/05/10 13:41:26;;;;;;;7.80;4.50;;;;;;;;;;5092561;28;20036;-86
2023/05/10 13:44:30;;;;;;;8.68;4.43;;;;;;;;;;5093417;28;20040;-82
2023/05/10 13:47:35;;;;;;;7.28;4.20;;;;;;;;;;5093314;28;20032;-81
2023/05/10 13:50:39;;;;;;;5.90;3.70;;;;;;;;;;5082109;28;20040;-82
2023/05/10 13:53:44;;;;;;;4.25;2.90;;;;;;;;;;5094391;28;20040;-83
2023/05/10 13:56:48;;;;;;;6.43;2.95;;;;;;;;;;5095263;28;20044;-79
2023/05/10 13:59:53;;;;;;;3.30;2.70;;;;;;;;;;5094265;28;20036;-82
2023/05/10 14:02:58;;;;;;;3.60;3.03;;;;;;;;;;5094492;28;20063;-79
2023/05/10 14:06:02;;;;;;;11.73;3.70;;;;;;;;;;5094081;28;20051;-79
2023/05/10 14:09:07;;;;;;;7.05;3.13;;;;;;;;;;5093944;28;20039;-78
2023/05/10 14:12:11;;;;;;;6.75;3.78;;;;;;;;;;5094105;28;20035;-78
2023/05/10 14:15:15;;;;;;;5.60;4.45;;;;;;;;;;5093631;28;20036;-78
2023/05/10 14:18:20;;;;;;;4.78;3.05;;;;;;;;;;5093534;28;20044;-78
2023/05/10 14:21:24;;;;;;;4.90;2.67;;;;;;;;;;5093907;28;20364;-78
2023/05/10 14:24:28;;;;;;;4.55;2.95;;;;;;;;;;5093693;28;20483;-78
2023/05/10 14:27:33;;;;;;;4.28;2.70;;;;;;;;;;5093450;28;20056;-77
2023/05/10 14:30:37;;;;;;;4.45;3.28;;;;;;;;;;5093511;28;20040;-76
2023/05/10 14:33:42;;;;;;;5.95;3.03;;;;;;;;;;5093730;28;20039;-76
2023/05/10 14:36:46;;;;;;;4.50;3.25;;;;;;;;;;5091594;28;20424;-77
2023/05/10 14:39:51;;;;;;;6.95;3.05;;;;;;;;;;5093223;28;20040;-77
2023/05/10 14:42:56;;;;;;;7.35;3.80;;;;;;;;;;5093310;28;20036;-77
2023/05/10 14:46:00;;;;;;;7.13;3.90;;;;;;;;;;5093518;28;20051;-77
2023/05/10 14:49:05;;;;;;;7.47;3.90;;;;;;;;;;5093406;28;20396;-76
2023/05/10 14:52:11;;;;;;;5.78;3.67;;;;;;;;;;5093283;28;20035;-75
2023/05/10 14:55:16;;;;;;;6.75;3.65;;;;;;;;;;5093072;28;20341;-78
2023/05/10 14:58:20;;;;;;;7.55;4.00;;;;;;;;;;5093062;28;20032;-77
2023/05/10 15:01:25;;;;;;;10.40;4.50;;;;;;;;;;5092756;28;20365;-79
2023/05/10 15:04:29;;;;;;;17.83;5.05;;;;;;;;;;5093165;28;20059;-79
2023/05/10 15:07:33;;;;;;;13.63;7.22;;;;;;;;;;5093576;28;20047;-79
2023/05/10 15:10:38;;;;;;;8.15;4.60;;;;;;;;;;5093501;28;20047;-80
2023/05/10 15:13:42;;;;;;;7.90;4.32;;;;;;;;;;5093584;28;20039;-83
2023/05/10 15:16:46;;;;;;;8.30;4.28;;;;;;;;;;5093422;28;20043;-85
2023/05/10 15:19:51;;;;;;;7.68;4.60;;;;;;;;;;5092534;28;20036;-85
2023/05/10 15:22:55;;;;;;;8.90;4.68;;;;;;;;;;5092864;28;20044;-82
2023/05/10 15:26:00;;;;;;;7.85;4.43;;;;;;;;;;5092563;28;20048;-79
2023/05/10 15:29:04;;;;;;;8.80;5.22;;;;;;;;;;5092445;28;20040;-81
2023/05/10 15:32:08;;;;;;;10.93;5.97;;;;;;;;;;5093424;28;20036;-82
2023/05/10 15:35:13;;;;;;;9.07;6.28;;;;;;;;;;5093013;28;20062;-84
2023/05/10 15:38:17;;;;;;;9.90;5.68;;;;;;;;;;5092932;28;20063;-84
2023/05/10 15:41:22;;;;;;;8.88;6.28;;;;;;;;;;5092470;28;20031;-79
2023/05/10 15:44:26;;;;;;;11.18;7.20;;;;;;;;;;5092332;28;20043;-83
2023/05/10 15:47:31;;;;;;;11.07;6.10;;;;;;;;;;5092026;28;20051;-81
2023/05/10 15:50:35;;;;;;;12.88;7.03;;;;;;;;;;5092542;28;20047;-89
2023/05/10 15:53:39;;;;;;;9.82;6.38;;;;;;;;;;5092587;28;20046;-80
2023/05/10 15:56:43;;;;;;;14.55;6.38;;;;;;;;;;5091939;28;20032;-84
2023/05/10 15:59:48;;;;;;;12.10;5.50;;;;;;;;;;5091230;28;20067;-79
2023/05/10 16:02:53;;;;;;;11.48;5.70;;;;;;;;;;5092203;28;20035;-83
2023/05/10 16:05:57;;;;;;;13.32;6.95;;;;;;;;;;5091623;28;20071;-79
2023/05/10 16:09:01;;;;;;;12.95;6.18;;;;;;;;;;5092359;28;20122;-83
2023/05/10 16:12:07;;;;;;;14.43;6.53;;;;;;;;;;5092733;28;20059;-86
2023/05/10 16:15:12;;;;;;;15.52;6.97;;;;;;;;;;5092472;28;20043;-76
2023/05/10 16:18:19;;;;;;;9.25;6.20;;;;;;;;;;5091560;28;20046;-81
2023/05/10 16:21:23;;;;;;;9.45;6.53;;;;;;;;;;5090301;28;20479;-78
2023/05/10 16:24:28;;;;;;;11.80;6.93;;;;;;;;;;5091737;28;20048;-80
2023/05/10 16:27:32;;;;;;;8.23;5.00;;;;;;;;;;5091343;28;20058;-80
2023/05/10 16:30:37;;;;;;;10.00;5.07;;;;;;;;;;5089371;28;20044;-75
2023/05/10 16:33:41;;;;;;;9.43;5.22;;;;;;;;;;5090439;28;20043;-79
2023/05/10 16:36:45;;;;;;;8.27;4.10;;;;;;;;;;5087759;28;20036;-80
2023/05/10 16:39:50;;;;;;;7.05;3.75;;;;;;;;;;5088486;28;20048;-75
2023/05/10 16:42:54;;;;;;;11.52;7.30;;;;;;;;;;5088163;28;20369;-75
2023/05/10 16:45:59;;;;;;;9.10;5.43;;;;;;;;;;5090191;28;20051;-81
2023/05/10 16:49:03;;;;;;;11.88;4.20;;;;;;;;;;5090553;28;20028;-81
2023/05/10 16:52:07;;;;;;;11.60;5.97;;;;;;;;;;5090877;28;20508;-83
2023/05/10 16:55:11;;;;;;;8.57;4.35;;;;;;;;;;5090522;28;20179;-78
2023/05/10 16:58:16;;;;;;;10.90;3.80;;;;;;;;;;5090733;28;20368;-76
2023/05/10 17:01:20;;;;;;;8.75;4.82;;;;;;;;;;5091299;28;20455;-77
2023/05/10 17:04:25;;;;;;;7.38;4.82;;;;;;;;;;5090121;28;20032;-80
2023/05/10 17:07:29;;;;;;;8.15;4.53;;;;;;;;;;5090252;28;20032;-79
2023/05/10 17:10:33;;;;;;;5.25;3.45;;;;;;;;;;5089231;28;20476;-79
2023/05/10 17:13:38;;;;;;;7.80;3.63;;;;;;;;;;5090197;28;20036;-78
2023/05/10 17:16:42;;;;;;;8.00;4.60;;;;;;;;;;5090347;28;20040;-78
2023/05/10 17:19:46;;;;;;;9.43;4.65;;;;;;;;;;5090052;28;20389;-78
2023/05/10 17:22:50;;;;;;;8.80;4.95;;;;;;;;;;5090044;28;20043;-81
2023/05/10 17:25:55;;;;;;;10.70;4.40;;;;;;;;;;5089371;28;20048;-77
2023/05/10 17:28:59;;;;;;;6.60;4.50;;;;;;;;;;5047049;28;1234198;-72
2023/05/10 17:32:04;;;;;;;9.18;5.13;;;;;;;;;;5090418;28;20051;-73
2023/05/10 17:35:08;;;;;;;7.93;5.95;;;;;;;;;;5090324;28;20040;-73
2023/05/10 17:38:12;;;;;;;9.55;6.75;;;;;;;;;;5088747;28;20040;-74
2023/05/10 17:41:16;;;;;;;10.02;6.57;;;;;;;;;;5090287;28;20036;-73
2023/05/10 17:44:21;;;;;;;13.35;7.28;;;;;;;;;;5090090;28;20047;-73
2023/05/10 17:47:26;;;;;;;11.27;7.68;;;;;;;;;;5090126;28;20055;-74
2023/05/10 17:50:31;;;;;;;12.02;7.18;;;;;;;;;;5089946;28;20040;-74
2023/05/10 17:53:36;;;;;;;10.25;5.63;;;;;;;;;;5089886;28;20064;-74
2023/05/10 17:56:40;;;;;;;13.63;6.78;;;;;;;;;;5090165;28;20047;-74
2023/05/10 17:59:44;;;;;;;14.05;7.10;;;18.90;99.90;;;;;;5089961;28;20047;-74
2023/05/10 18:02:48;;;;;;;11.27;6.80;;;18.80;99.90;;;;;;5089953;28;20043;-74
2023/05/10 18:05:54;;;;;;;10.73;7.05;;;18.60;99.90;;;;;;5089764;28;20059;-74
2023/05/10 18:08:57;;;;;;;9.05;6.85;;;18.50;99.90;;;;;;5090365;28;20043;-74
2023/05/10 18:12:02;;;;;;;9.18;7.15;;;18.40;99.90;;;;;;5091594;28;20046;-74